Time;durP1;ratioP1;P1;durP2;ratioP2;P2;SDS_P1;SDS_P2;PMS_P1;PMS_P2;Temp;Humidity;BMP_temperature;BMP_pressure;BME280_temperature;BME280_humidity;BME280_pressure;Samples;Min_cycle;Max_cycle;Signal;HPM_P1;HPM_P2
2022/12/18 00:01:38;;;;;;;;;;;;;;;14.61;72.98;102053.53;5041338;28;20389;-85
2022/12/18 00:04:04;;;;;;;;;;;;;;;14.60;72.83;102051.72;5037611;28;20480;-83
2022/12/18 00:06:30;;;;;;;;;;;;;;;14.62;72.88;102050.97;5038797;28;19917;-85
2022/12/18 00:08:57;;;;;;;;;;;;;;;14.61;72.84;102043.03;5034468;28;20009;-85
2022/12/18 00:11:23;;;;;;;;;;;;;;;14.61;72.84;102054.44;5036319;28;20455;-85
2022/12/18 00:13:49;;;;;;;;;;;;;;;14.60;72.74;102049.97;5032377;28;19913;-85
2022/12/18 00:16:18;;;;;;;;;;;;;;;14.60;72.58;102057.88;5031315;28;20386;-85
2022/12/18 00:18:43;;;;;;;;;;;;;;;14.60;72.81;102063.13;5041645;28;20336;-85
2022/12/18 00:21:10;;;;;;;;;;;;;;;14.62;73.00;102063.22;5047349;28;19924;-85
2022/12/18 00:23:35;;;;;;;;;;;;;;;14.61;72.85;102059.69;5047121;28;19912;-85
2022/12/18 00:26:02;;;;;;;;;;;;;;;14.61;72.92;102064.06;5043488;28;19924;-85
2022/12/18 00:28:27;;;;;;;;;;;;;;;14.62;72.92;102056.22;5045462;28;19936;-85
2022/12/18 00:31:00;;;;;;;;;;;;;;;14.60;72.88;102052.59;5039137;28;20406;-85
2022/12/18 00:33:25;;;;;;;;;;;;;;;14.61;72.73;102059.69;5042534;28;19913;-85
2022/12/18 00:35:51;;;;;;;;;;;;;;;14.61;72.87;102077.19;5037453;28;20003;-85
2022/12/18 00:38:19;;;;;;;;;;;;;;;14.61;72.96;102077.19;5038079;28;20321;-85
2022/12/18 00:40:45;;;;;;;;;;;;;;;14.62;73.10;102086.88;5034938;28;20000;-85
2022/12/18 00:43:11;;;;;;;;;;;;;;;14.62;72.88;102098.31;5034407;28;20452;-85
2022/12/18 00:45:36;;;;;;;;;;;;;;;14.62;72.92;102098.31;5048482;28;19966;-84
2022/12/18 00:48:02;;;;;;;;;;;;;;;14.63;72.89;102093.97;5050554;28;20429;-85
2022/12/18 00:50:27;;;;;;;;;;;;;;;14.63;73.00;102091.34;5045213;28;19920;-84
2022/12/18 00:52:53;;;;;;;;;;;;;;;14.62;73.00;102079.91;5047934;28;19970;-85
2022/12/18 00:55:18;;;;;;;;;;;;;;;14.62;73.02;102079.91;5024776;28;19978;-84
2022/12/18 00:57:43;;;;;;;;;;;;;;;14.64;72.85;102087.88;5045342;28;20405;-85
2022/12/18 01:00:11;;;;;;;;;;;;;;;14.62;73.15;102087.78;5038919;28;20291;-85
2022/12/18 01:02:36;;;;;;;;;;;;;;;14.62;73.07;102093.03;5039102;28;19917;-85
2022/12/18 01:05:02;;;;;;;;;;;;;;;14.61;73.16;102095.59;5035926;28;20386;-85
2022/12/18 01:07:27;;;;;;;;;;;;;;;14.63;73.08;102102.75;5035371;28;20314;-83
2022/12/18 01:09:54;;;;;;;;;;;;;;;14.61;73.18;102096.50;5033435;28;19944;-84
2022/12/18 01:12:19;;;;;;;;;;;;;;;14.62;73.06;102100.03;5036757;28;19913;-85
2022/12/18 01:14:45;;;;;;;;;;;;;;;14.61;73.15;102099.13;5037913;28;19924;-85
2022/12/18 01:17:10;;;;;;;;;;;;;;;14.62;73.17;102098.31;5049628;28;19924;-85
2022/12/18 01:19:36;;;;;;;;;;;;;;;14.62;73.00;102106.19;5043668;28;19932;-85
2022/12/18 01:22:02;;;;;;;;;;;;;;;14.60;73.22;102102.56;5041331;28;19967;-85
2022/12/18 01:24:27;;;;;;;;;;;;;;;14.60;73.09;102106.91;5043406;28;19913;-85
2022/12/18 01:26:53;;;;;;;;;;;;;;;14.61;73.02;102091.25;5045684;28;20358;-84
2022/12/18 01:29:18;;;;;;;;;;;;;;;14.63;72.89;102083.47;5040853;28;19913;-83
2022/12/18 01:31:44;;;;;;;;;;;;;;;14.62;73.02;102100.94;5042154;28;19917;-85
2022/12/18 01:34:10;;;;;;;;;;;;;;;14.63;73.06;102102.75;5037610;28;19913;-85
2022/12/18 01:36:37;;;;;;;;;;;;;;;14.62;73.06;102100.03;5041260;28;19920;-84
2022/12/18 01:39:10;;;;;;;;;;;;;;;14.63;72.97;102092.25;5046856;28;19942;-85
2022/12/18 01:44:42;;;;;;;;;;;;;;;14.61;72.78;102109.66;5040436;28;20317;-84
2022/12/18 01:47:07;;;;;;;;;;;;;;;14.60;72.55;102109.53;5064339;28;19924;-84
2022/12/18 01:49:34;;;;;;;;;;;;;;;14.61;72.72;102111.38;5068520;28;19938;-84
2022/12/18 01:51:59;;;;;;;;;;;;;;;14.60;72.59;102107.81;5061035;28;19920;-84
2022/12/18 01:54:28;;;;;;;;;;;;;;;14.61;72.87;102119.25;5055293;28;20389;-84
2022/12/18 01:56:54;;;;;;;;;;;;;;;14.62;72.61;102121.97;5056012;28;19912;-84
2022/12/18 01:59:19;;;;;;;;;;;;;;;14.61;72.77;102127.16;5049084;28;19913;-84
2022/12/18 02:01:45;;;;;;;;;;;;;;;14.60;72.87;102128.84;5047608;28;19917;-84
2022/12/18 02:04:30;;;;;;;;;;;;;;;14.61;72.98;102135.94;5071442;28;20368;-84
2022/12/18 02:07:14;;;;;;;;;;;;;;;14.64;72.55;102137.84;5070795;28;20038;-84
2022/12/18 02:10:15;;;;;;;;;;;;;;;14.61;72.63;102132.41;5069403;28;19912;-84
2022/12/18 02:12:45;;;;;;;;;;;;;;;14.62;72.54;102132.47;4979353;28;19925;-84
2022/12/18 02:15:29;;;;;;;;;;;;;;;14.63;72.45;102141.28;5029693;28;19936;-84
2022/12/18 02:18:21;;;;;;;;;;;;;;;14.61;72.50;102146.44;5070219;28;19916;-84
2022/12/18 02:21:05;;;;;;;;;;;;;;;14.61;72.66;102150.81;5051592;28;19943;-84
2022/12/18 02:23:36;;;;;;;;;;;;;;;14.64;72.49;102156.25;5061230;28;20297;-84
2022/12/18 02:26:14;;;;;;;;;;;;;;;14.65;72.38;102156.34;5070555;28;20377;-84
2022/12/18 02:28:43;;;;;;;;;;;;;;;14.65;72.42;102158.06;5061222;28;20007;-84
2022/12/18 02:31:10;;;;;;;;;;;;;;;14.63;72.60;102149.19;5044678;28;19959;-84
2022/12/18 02:33:36;;;;;;;;;;;;;;;14.64;72.33;102146.63;5066525;28;20470;-84
2022/12/18 02:36:01;;;;;;;;;;;;;;;14.63;72.39;102151.81;5043425;28;19925;-84
2022/12/18 02:38:27;;;;;;;;;;;;;;;14.63;72.45;102152.72;5046258;28;20012;-84
2022/12/18 02:40:52;;;;;;;;;;;;;;;14.63;72.34;102147.44;5039702;28;19917;-84
2022/12/18 02:43:18;;;;;;;;;;;;;;;14.62;72.32;102147.34;5043077;28;19959;-84
2022/12/18 02:45:55;;;;;;;;;;;;;;;14.64;72.36;102145.72;5038453;28;20462;-84
2022/12/18 02:48:24;;;;;;;;;;;;;;;14.62;72.46;102148.25;5040340;28;19943;-84
2022/12/18 02:50:57;;;;;;;;;;;;;;;14.63;72.63;102146.56;5042088;28;20294;-84
2022/12/18 02:53:29;;;;;;;;;;;;;;;14.63;72.42;102143.94;5050411;28;19917;-84
2022/12/18 02:56:24;;;;;;;;;;;;;;;14.64;72.51;102145.72;5040128;28;20456;-84
2022/12/18 02:58:49;;;;;;;;;;;;;;;14.64;72.55;102145.72;5034031;28;19929;-85
2022/12/18 03:01:25;;;;;;;;;;;;;;;14.64;72.78;102157.13;5048598;28;19917;-84
2022/12/18 03:04:01;;;;;;;;;;;;;;;14.62;72.71;102150.88;5041716;28;20419;-84
2022/12/18 03:06:27;;;;;;;;;;;;;;;14.62;72.77;102145.63;5042642;28;19920;-84
2022/12/18 03:08:56;;;;;;;;;;;;;;;14.62;72.70;102136.84;5039254;28;20448;-84
2022/12/18 03:12:22;;;;;;;;;;;;;;;14.61;72.44;102135.03;5040412;28;19956;-84
2022/12/18 03:14:08;;;;;;;;;;;;;;;14.59;72.84;102144.56;5039793;28;20482;-84
2022/12/18 03:16:34;;;;;;;;;;;;;;;14.61;72.73;102142.94;5044564;28;19999;-84
2022/12/18 03:19:03;;;;;;;;;;;;;;;14.61;72.69;102156.97;5024654;28;19913;-84
2022/12/18 03:21:39;;;;;;;;;;;;;;;14.61;72.84;102163.97;5046941;28;19924;-84
2022/12/18 03:24:05;;;;;;;;;;;;;;;14.59;72.90;102174.38;5041473;28;19912;-84
2022/12/18 03:26:31;;;;;;;;;;;;;;;14.60;72.89;102167.38;5036007;28;19920;-84
2022/12/18 03:28:57;;;;;;;;;;;;;;;14.62;72.75;102168.38;5037201;28;19913;-84
2022/12/18 03:31:23;;;;;;;;;;;;;;;14.59;72.79;102166.50;5033521;28;20012;-84
2022/12/18 03:33:56;;;;;;;;;;;;;;;14.59;72.90;102144.56;5037302;28;20005;-84
2022/12/18 03:36:21;;;;;;;;;;;;;;;14.59;72.87;102147.19;5050309;28;19917;-85
2022/12/18 03:38:46;;;;;;;;;;;;;;;14.59;72.95;102145.44;5050382;28;19999;-84
2022/12/18 03:41:30;;;;;;;;;;;;;;;14.58;72.81;102162.06;5051857;28;19916;-85
2022/12/18 03:44:12;;;;;;;;;;;;;;;14.59;73.08;102173.47;5063611;28;19920;-84
2022/12/18 03:46:38;;;;;;;;;;;;;;;14.58;72.77;102167.31;5068722;28;19919;-85
2022/12/18 03:49:33;;;;;;;;;;;;;;;14.60;72.79;102188.41;5062322;28;20493;-85
2022/12/18 03:52:06;;;;;;;;;;;;;;;14.59;72.74;102192.78;5050196;28;19924;-84
2022/12/18 03:54:31;;;;;;;;;;;;;;;14.61;72.67;102187.63;5053542;28;19924;-84
2022/12/18 03:56:59;;;;;;;;;;;;;;;14.59;72.55;102192.78;5048926;28;20313;-84
2022/12/18 03:59:25;;;;;;;;;;;;;;;14.55;72.67;102198.66;5044460;28;19913;-84
2022/12/18 04:01:51;;;;;;;;;;;;;;;14.56;72.47;102202.19;5053565;28;19920;-83
2022/12/18 04:04:16;;;;;;;;;;;;;;;14.54;72.55;102217.88;5053212;28;20003;-83
2022/12/18 04:06:42;;;;;;;;;;;;;;;14.57;72.89;102218.06;5049093;28;19927;-84
2022/12/18 04:09:07;;;;;;;;;;;;;;;14.56;72.67;102232.03;5053150;28;19923;-83
2022/12/18 04:11:33;;;;;;;;;;;;;;;14.58;72.80;102243.56;5045813;28;19920;-84
2022/12/18 04:13:58;;;;;;;;;;;;;;;14.58;72.93;102247.88;5048655;28;20389;-84
2022/12/18 04:16:24;;;;;;;;;;;;;;;14.58;72.62;102253.16;5064713;28;19923;-84
2022/12/18 04:18:49;;;;;;;;;;;;;;;14.57;72.67;102262.75;5046477;28;20371;-84
2022/12/18 04:21:15;;;;;;;;;;;;;;;14.57;72.77;102262.75;5059512;28;19971;-84
2022/12/18 04:23:40;;;;;;;;;;;;;;;14.57;72.44;102273.28;5044088;28;19920;-83
2022/12/18 04:26:06;;;;;;;;;;;;;;;14.56;72.73;102289.88;5058553;28;20250;-84
2022/12/18 04:28:31;;;;;;;;;;;;;;;14.57;72.51;102294.31;5043253;28;19916;-85
2022/12/18 04:30:57;;;;;;;;;;;;;;;14.55;72.24;102295.00;5053643;28;20394;-84
2022/12/18 04:33:22;;;;;;;;;;;;;;;14.58;72.47;102305.72;5063078;28;20424;-85
2022/12/18 04:35:47;;;;;;;;;;;;;;;14.55;72.30;102306.44;5050919;28;19996;-84
2022/12/18 04:38:13;;;;;;;;;;;;;;;14.58;72.35;102310.97;5031358;28;20039;-84
2022/12/18 04:40:38;;;;;;;;;;;;;;;14.57;72.73;102314.44;5044337;28;19983;-84
2022/12/18 04:43:04;;;;;;;;;;;;;;;14.59;72.61;102316.34;5047259;28;20640;-85
2022/12/18 04:45:32;;;;;;;;;;;;;;;14.57;72.66;102320.59;5042481;28;19913;-84
2022/12/18 04:47:58;;;;;;;;;;;;;;;14.58;72.57;102329.38;5044826;28;19913;-85
2022/12/18 04:50:24;;;;;;;;;;;;;;;14.54;72.61;102336.16;5040450;28;19921;-82
2022/12/18 04:52:49;;;;;;;;;;;;;;;14.56;72.30;102337.19;5039616;28;19917;-84
2022/12/18 04:55:15;;;;;;;;;;;;;;;14.54;72.53;102332.59;5047815;28;19971;-84
2022/12/18 04:57:40;;;;;;;;;;;;;;;14.54;72.48;102337.84;5050583;28;19959;-84
2022/12/18 05:00:06;;;;;;;;;;;;;;;14.56;72.38;102339.84;5045300;28;19917;-84
2022/12/18 05:02:32;;;;;;;;;;;;;;;14.57;72.07;102346.00;5044304;28;20499;-84
2022/12/18 05:04:57;;;;;;;;;;;;;;;14.55;72.32;102353.78;5030839;28;19913;-83
2022/12/18 05:07:22;;;;;;;;;;;;;;;14.54;72.33;102361.53;5039957;28;20405;-83
2022/12/18 05:09:48;;;;;;;;;;;;;;;14.55;71.52;102369.53;5044180;28;19999;-83
2022/12/18 05:12:13;;;;;;;;;;;;;;;14.54;71.79;102378.22;5039563;28;20512;-83
2022/12/18 05:14:39;;;;;;;;;;;;;;;14.56;71.85;102386.22;5042074;28;20414;-84
2022/12/18 05:17:04;;;;;;;;;;;;;;;14.57;71.74;102403.84;5037895;28;19913;-83
2022/12/18 05:19:30;;;;;;;;;;;;;;;14.56;71.65;102407.25;5045781;28;20414;-84
2022/12/18 05:21:55;;;;;;;;;;;;;;;14.54;71.70;102419.34;5035599;28;19917;-84
2022/12/18 05:24:21;;;;;;;;;;;;;;;14.53;71.50;102418.47;5052883;28;19913;-84
2022/12/18 05:26:46;;;;;;;;;;;;;;;14.56;71.35;102428.28;5061930;28;19917;-84
2022/12/18 05:29:12;;;;;;;;;;;;;;;14.55;71.77;102430.00;5048555;28;19917;-84
2022/12/18 05:31:38;;;;;;;;;;;;;;;14.55;71.42;102434.34;5051424;28;20415;-81
2022/12/18 05:34:03;;;;;;;;;;;;;;;14.52;71.58;102445.56;5046475;28;19913;-82
2022/12/18 05:36:28;;;;;;;;;;;;;;;14.53;71.91;102464.88;5045283;28;19920;-83
2022/12/18 05:38:54;;;;;;;;;;;;;;;14.52;71.55;102474.50;5042583;28;19979;-83
2022/12/18 05:41:23;;;;;;;;;;;;;;;14.55;71.58;102479.97;5042298;28;20500;-82
2022/12/18 05:43:48;;;;;;;;;;;;;;;14.54;71.66;102478.13;5044739;28;19917;-83
2022/12/18 05:46:15;;;;;;;;;;;;;;;14.54;72.08;102482.44;5039826;28;20313;-83
2022/12/18 05:48:41;;;;;;;;;;;;;;;14.52;71.41;102490.25;5020951;28;19917;-83
2022/12/18 05:51:08;;;;;;;;;;;;;;;14.56;71.80;102494.00;5044552;28;19920;-83
2022/12/18 05:53:33;;;;;;;;;;;;;;;14.57;71.82;102496.75;5052070;28;20340;-84
2022/12/18 05:56:00;;;;;;;;;;;;;;;14.56;71.95;102494.94;5051256;28;19913;-84
2022/12/18 05:58:25;;;;;;;;;;;;;;;14.57;71.99;102503.75;5049961;28;20366;-86
2022/12/18 06:00:53;;;;;;;;;;;;;;;14.52;72.52;102503.41;5031526;28;19920;-84
2022/12/18 06:03:19;;;;;;;;;;;;;;;14.51;72.44;102503.31;5048671;28;20003;-84
2022/12/18 06:05:54;;;;;;;;;;;;;;;14.52;72.12;102508.66;5043734;28;20411;-85
2022/12/18 06:08:22;;;;;;;;;;;;;;;14.53;72.43;102509.56;5043066;28;19913;-84
2022/12/18 06:10:52;;;;;;;;;;;;;;;14.52;72.45;102521.81;5041748;28;19956;-84
2022/12/18 06:13:17;;;;;;;;;;;;;;;14.53;72.28;102544.66;5038632;28;19957;-83
2022/12/18 06:15:43;;;;;;;;;;;;;;;14.51;72.14;102550.63;5038952;28;19916;-83
2022/12/18 06:18:08;;;;;;;;;;;;;;;14.49;72.31;102557.50;5036252;28;20366;-83
2022/12/18 06:20:36;;;;;;;;;;;;;;;14.49;72.13;102568.91;5043653;28;19913;-84
2022/12/18 06:23:01;;;;;;;;;;;;;;;14.48;71.77;102589.81;5048075;28;20317;-85
2022/12/18 06:25:27;;;;;;;;;;;;;;;14.44;71.43;102597.53;5045823;28;19917;-84
2022/12/18 06:27:52;;;;;;;;;;;;;;;14.49;71.63;102595.19;5045825;28;20459;-85
2022/12/18 06:30:18;;;;;;;;;;;;;;;14.47;71.82;102599.44;5038485;28;20367;-84
2022/12/18 06:32:43;;;;;;;;;;;;;;;14.45;71.27;102606.31;5034257;28;20003;-84
2022/12/18 06:35:09;;;;;;;;;;;;;;;14.45;71.89;102611.56;5034137;28;19913;-85
2022/12/18 06:37:34;;;;;;;;;;;;;;;14.50;71.69;102618.06;5035919;28;19913;-83
2022/12/18 06:40:00;;;;;;;;;;;;;;;14.48;71.54;102622.31;5039303;28;19925;-84
2022/12/18 06:42:26;;;;;;;;;;;;;;;14.45;71.56;102624.72;5039577;28;20059;-85
2022/12/18 06:44:51;;;;;;;;;;;;;;;14.49;71.65;102632.00;5045541;28;20007;-85
2022/12/18 06:47:17;;;;;;;;;;;;;;;14.41;71.17;102630.56;5042811;28;19924;-85
2022/12/18 06:49:43;;;;;;;;;;;;;;;14.35;71.20;102632.78;5039554;28;19970;-83
2022/12/18 06:52:08;;;;;;;;;;;;;;;14.35;71.01;102638.03;5074918;28;19941;-84
2022/12/18 06:54:34;;;;;;;;;;;;;;;14.33;71.15;102634.38;5039652;28;20351;-84
2022/12/18 06:56:59;;;;;;;;;;;;;;;14.39;70.88;102638.38;5068811;28;19917;-84
2022/12/18 06:59:24;;;;;;;;;;;;;;;14.42;71.33;102638.56;5067590;28;19923;-84
2022/12/18 07:01:50;;;;;;;;;;;;;;;14.38;71.07;102644.41;5048528;28;20374;-83
2022/12/18 07:04:19;;;;;;;;;;;;;;;14.37;70.99;102646.94;5064685;28;20446;-84
2022/12/18 07:06:45;;;;;;;;;;;;;;;14.35;70.92;102657.38;5023283;28;19923;-84
2022/12/18 07:09:17;;;;;;;;;;;;;;;14.38;70.77;102665.44;5044927;28;19983;-84
2022/12/18 07:11:43;;;;;;;;;;;;;;;14.36;70.68;102663.53;5066970;28;19917;-83
2022/12/18 07:14:08;;;;;;;;;;;;;;;14.37;71.44;102662.72;5048101;28;19916;-83
2022/12/18 07:16:34;;;;;;;;;;;;;;;14.41;71.08;102688.41;5046771;28;19983;-83
2022/12/18 07:18:59;;;;;;;;;;;;;;;14.36;70.70;102681.94;5035505;28;20325;-83
2022/12/18 07:21:25;;;;;;;;;;;;;;;14.33;70.84;102687.88;5053229;28;20377;-83
2022/12/18 07:23:50;;;;;;;;;;;;;;;14.37;70.69;102694.25;5069387;28;19920;-83
2022/12/18 07:26:17;;;;;;;;;;;;;;;14.35;70.58;102712.56;5035696;28;19912;-83
2022/12/18 07:28:43;;;;;;;;;;;;;;;14.33;70.65;102703.66;5051543;28;19920;-83
2022/12/18 07:31:16;;;;;;;;;;;;;;;14.35;70.61;102707.31;5032493;28;19921;-83
2022/12/18 07:33:41;;;;;;;;;;;;;;;14.30;70.86;102710.41;5050396;28;19923;-83
2022/12/18 07:36:07;;;;;;;;;;;;;;;14.27;70.53;102716.38;5072191;28;19912;-83
2022/12/18 07:38:33;;;;;;;;;;;;;;;14.19;71.36;102713.19;5067997;28;19928;-82
2022/12/18 07:41:02;;;;;;;;;;;;;;;14.21;70.42;102716.84;5063187;28;20378;-83
2022/12/18 07:43:28;;;;;;;;;;;;;;;14.25;69.80;102723.22;5063182;28;19931;-83
2022/12/18 07:45:53;;;;;;;;;;;;;;;14.19;70.00;102723.69;5064262;28;20305;-82
2022/12/18 07:48:19;;;;;;;;;;;;;;;14.20;70.70;102735.13;5045952;28;20432;-81
2022/12/18 07:50:44;;;;;;;;;;;;;;;14.19;70.19;102749.06;5035480;28;19912;-82
2022/12/18 07:53:10;;;;;;;;;;;;;;;14.19;70.45;102752.59;5063528;28;19917;-82
2022/12/18 07:55:35;;;;;;;;;;;;;;;14.23;70.34;102754.66;5045211;28;20396;-83
2022/12/18 07:58:02;;;;;;;;;;;;;;;14.18;71.24;102763.94;5054327;28;20297;-82
2022/12/18 08:00:27;;;;;;;;;;;;;;;14.21;70.47;102766.78;5035814;28;20504;-82
2022/12/18 08:02:53;;;;;;;;;;;;;;;14.22;69.96;102765.97;5049138;28;21590;-82
2022/12/18 08:05:18;;;;;;;;;;;;;;;14.23;70.09;102767.78;5042045;28;19916;-83
2022/12/18 08:07:44;;;;;;;;;;;;;;;14.21;70.55;102763.25;5045461;28;19916;-84
2022/12/18 08:10:09;;;;;;;;;;;;;;;14.22;70.45;102767.66;5057131;28;19913;-82
2022/12/18 08:12:35;;;;;;;;;;;;;;;14.23;69.97;102766.88;5049317;28;20317;-83
2022/12/18 08:15:00;;;;;;;;;;;;;;;14.22;69.85;102765.03;5068406;28;19951;-82
2022/12/18 08:17:25;;;;;;;;;;;;;;;14.15;70.78;102768.06;5063662;28;19917;-81
2022/12/18 08:19:51;;;;;;;;;;;;;;;14.19;70.19;102771.00;5039277;28;19991;-83
2022/12/18 08:22:16;;;;;;;;;;;;;;;14.23;70.29;102769.50;5045979;28;19917;-83
2022/12/18 08:24:42;;;;;;;;;;;;;;;14.17;70.52;102764.72;5043084;28;20495;-83
2022/12/18 08:27:07;;;;;;;;;;;;;;;14.18;70.48;102763.94;5047192;28;19917;-83
2022/12/18 08:29:33;;;;;;;;;;;;;;;14.23;69.42;102767.78;5047193;28;19924;-84
2022/12/18 08:31:59;;;;;;;;;;;;;;;14.16;70.36;102769.84;5045960;28;20381;-83
2022/12/18 08:34:24;;;;;;;;;;;;;;;14.21;69.90;102781.63;5066985;28;19912;-82
2022/12/18 08:36:49;;;;;;;;;;;;;;;14.20;69.91;102785.03;5066012;28;19929;-83
2022/12/18 08:39:15;;;;;;;;;;;;;;;14.14;70.53;102788.16;5052125;28;19936;-83
2022/12/18 08:41:40;;;;;;;;;;;;;;;14.16;70.33;102776.06;5047277;28;19921;-81
2022/12/18 08:46:53;;;;;;;;;;;;;;;14.11;70.03;102780.03;5044019;28;20011;-82
2022/12/18 08:49:24;;;;;;;;;;;;;;;14.15;69.67;102789.97;5040068;28;19949;-83
2022/12/18 08:51:53;;;;;;;;;;;;;;;14.10;68.44;102783.50;5045595;28;19924;-83
2022/12/18 08:54:19;;;;;;;;;;;;;;;14.01;68.60;102781.13;5046639;28;20035;-82
2022/12/18 08:56:44;;;;;;;;;;;;;;;14.13;68.19;102777.53;5046061;28;19920;-82
2022/12/18 08:59:10;;;;;;;;;;;;;;;14.10;69.31;102774.72;5042643;28;19921;-82
2022/12/18 09:01:35;;;;;;;;;;;;;;;14.11;68.55;102777.41;5041200;28;20004;-82
2022/12/18 09:04:00;;;;;;;;;;;;;;;14.13;68.28;102775.81;5045889;28;19917;-83
2022/12/18 09:06:26;;;;;;;;;;;;;;;14.14;68.96;102781.97;5042571;28;20420;-82
2022/12/18 09:08:51;;;;;;;;;;;;;;;14.11;68.63;102779.13;5043188;28;19979;-82
2022/12/18 09:11:24;;;;;;;;;;;;;;;14.11;69.04;102776.50;5038739;28;19917;-82
2022/12/18 09:13:50;;;;;;;;;;;;;;;14.07;68.37;102779.72;5028895;28;20324;-82
2022/12/18 09:16:16;;;;;;;;;;;;;;;14.08;68.49;102784.19;5045032;28;19917;-82
2022/12/18 09:18:41;;;;;;;;;;;;;;;14.14;68.99;102795.13;5032562;28;19913;-82
2022/12/18 09:21:07;;;;;;;;;;;;;;;14.10;67.89;102793.09;5046769;28;19976;-82
2022/12/18 09:23:32;;;;;;;;;;;;;;;14.10;68.29;102791.38;5023010;28;19917;-83
2022/12/18 09:25:59;;;;;;;;;;;;;;;14.03;69.44;102796.97;5038209;28;20283;-83
2022/12/18 09:28:24;;;;;;;;;;;;;;;14.05;68.80;102796.31;5040127;28;20408;-82
2022/12/18 09:30:50;;;;;;;;;;;;;;;14.13;68.43;102803.81;5047517;28;19921;-83
2022/12/18 09:33:15;;;;;;;;;;;;;;;14.12;68.83;102796.72;5047880;28;19963;-83
2022/12/18 09:35:41;;;;;;;;;;;;;;;14.14;69.14;102797.75;5044855;28;19952;-83
2022/12/18 09:38:08;;;;;;;;;;;;;;;14.08;68.90;102797.31;5050839;28;19913;-83
2022/12/18 09:40:39;;;;;;;;;;;;;;;14.11;68.54;102801.06;5042063;28;19920;-82
2022/12/18 09:43:05;;;;;;;;;;;;;;;14.07;68.29;102799.03;5042354;28;19932;-83
2022/12/18 09:45:31;;;;;;;;;;;;;;;14.02;68.57;102800.41;5040464;28;19923;-82
2022/12/18 09:47:56;;;;;;;;;;;;;;;14.09;68.26;102800.03;5045301;28;19916;-82
2022/12/18 09:50:29;;;;;;;;;;;;;;;14.07;67.71;102795.50;5029666;28;20348;-83
2022/12/18 09:52:55;;;;;;;;;;;;;;;14.05;68.10;102798.00;5034172;28;20386;-83
2022/12/18 09:55:37;;;;;;;;;;;;;;;14.05;67.54;102809.44;5033674;28;19917;-83
2022/12/18 09:58:05;;;;;;;;;;;;;;;14.07;68.70;102800.75;5041795;28;19990;-84
2022/12/18 10:00:30;;;;;;;;;;;;;;;14.09;67.92;102789.53;5038954;28;20374;-84
2022/12/18 10:02:58;;;;;;;;;;;;;;;14.04;69.13;102804.06;5037234;28;20008;-84
2022/12/18 10:05:37;;;;;;;;;;;;;;;14.11;68.52;102808.94;5038709;28;19914;-84
2022/12/18 10:08:02;;;;;;;;;;;;;;;14.12;68.92;102802.91;5037972;28;19923;-83
2022/12/18 10:10:31;;;;;;;;;;;;;;;14.16;69.31;102804.97;5047170;28;19924;-83
2022/12/18 10:12:56;;;;;;;;;;;;;;;14.19;69.13;102801.63;5054919;28;19921;-83
2022/12/18 10:15:44;;;;;;;;;;;;;;;14.18;68.91;102797.16;5052826;28;19966;-83
2022/12/18 10:18:12;;;;;;;;;;;;;;;14.23;69.49;102790.53;5052373;28;19951;-83
2022/12/18 10:20:37;;;;;;;;;;;;;;;14.19;70.03;102791.13;5045402;28;19936;-86
2022/12/18 10:23:15;;;;;;;;;;;;;;;14.21;69.67;102790.41;5047020;28;20314;-85
2022/12/18 10:25:50;;;;;;;;;;;;;;;14.25;70.25;102802.97;5044559;28;19960;-85
2022/12/18 10:28:16;;;;;;;;;;;;;;;14.28;70.21;102801.38;5046096;28;19970;-86
2022/12/18 10:30:42;;;;;;;;;;;;;;;14.29;70.46;102796.25;5048729;28;20007;-86
2022/12/18 10:33:28;;;;;;;;;;;;;;;14.24;70.72;102790.66;5026690;28;20363;-86
2022/12/18 10:35:53;;;;;;;;;;;;;;;14.26;70.50;102790.75;5041440;28;19960;-88
2022/12/18 10:38:19;;;;;;;;;;;;;;;14.23;70.42;102796.69;5048138;28;19956;-87
2022/12/18 10:40:50;;;;;;;;;;;;;;;14.21;70.76;102798.31;5049922;28;20385;-87
2022/12/18 10:43:19;;;;;;;;;;;;;;;14.24;70.57;102802.84;5046092;28;19921;-86
2022/12/18 10:45:49;;;;;;;;;;;;;;;14.23;70.48;102796.69;5034953;28;19924;-86
2022/12/18 10:48:19;;;;;;;;;;;;;;;14.20;70.45;102801.75;5043124;28;19923;-86
2022/12/18 10:50:46;;;;;;;;;;;;;;;14.22;70.60;102805.41;5035538;28;20536;-86
2022/12/18 10:53:13;;;;;;;;;;;;;;;14.20;70.55;102796.50;5033459;28;19923;-87
2022/12/18 10:55:39;;;;;;;;;;;;;;;14.17;70.92;102801.50;5031324;28;20398;-86
2022/12/18 10:58:23;;;;;;;;;;;;;;;14.21;70.83;102806.19;5050017;28;19924;-83
2022/12/18 11:01:07;;;;;;;;;;;;;;;14.22;70.62;102805.41;5048684;28;20299;-83
2022/12/18 11:03:37;;;;;;;;;;;;;;;14.25;70.90;102800.34;5046149;28;19933;-83
2022/12/18 11:06:04;;;;;;;;;;;;;;;14.17;70.75;102791.00;5042851;28;20008;-83
2022/12/18 11:08:29;;;;;;;;;;;;;;;14.17;71.13;102795.34;5042804;28;20386;-83
2022/12/18 11:10:55;;;;;;;;;;;;;;;14.16;70.65;102804.97;5040322;28;19921;-83
2022/12/18 11:13:24;;;;;;;;;;;;;;;14.21;70.15;102803.56;5042863;28;20349;-83
2022/12/18 11:15:51;;;;;;;;;;;;;;;14.18;70.32;102808.59;5039535;28;19913;-84
2022/12/18 11:18:18;;;;;;;;;;;;;;;14.16;70.60;102811.91;5037542;28;19972;-83
2022/12/18 11:21:04;;;;;;;;;;;;;;;14.13;70.28;102823.09;5031663;28;19920;-85
2022/12/18 11:23:30;;;;;;;;;;;;;;;14.16;70.55;102819.78;5038782;28;19924;-84
2022/12/18 11:26:17;;;;;;;;;;;;;;;14.18;70.85;102811.25;5042194;28;19916;-85
2022/12/18 11:28:43;;;;;;;;;;;;;;;14.24;70.79;102816.00;5034434;28;20017;-85
2022/12/18 11:31:12;;;;;;;;;;;;;;;14.19;70.30;102814.78;5047903;28;19971;-89
2022/12/18 11:33:38;;;;;;;;;;;;;;;14.20;70.46;102824.47;5041101;28;19917;-88
2022/12/18 11:36:03;;;;;;;;;;;;;;;14.18;70.44;102829.63;5039056;28;19939;-86
2022/12/18 11:38:29;;;;;;;;;;;;;;;14.17;70.47;102840.03;5029397;28;19929;-86
2022/12/18 11:40:57;;;;;;;;;;;;;;;14.15;70.58;102845.16;5039412;28;20436;-85
2022/12/18 11:43:28;;;;;;;;;;;;;;;14.14;70.25;102831.91;5050275;28;20401;-88
2022/12/18 11:45:54;;;;;;;;;;;;;;;14.09;70.05;102830.66;5014645;28;19917;-85
2022/12/18 11:48:24;;;;;;;;;;;;;;;14.08;70.67;102835.00;5047527;28;19913;-84
2022/12/18 11:50:51;;;;;;;;;;;;;;;14.10;69.78;102845.66;5047270;28;19956;-85
2022/12/18 11:53:16;;;;;;;;;;;;;;;14.04;69.74;102840.84;5048116;28;19959;-86
2022/12/18 11:55:42;;;;;;;;;;;;;;;14.02;70.29;102848.59;5047645;28;19917;-85
2022/12/18 11:58:07;;;;;;;;;;;;;;;14.05;70.34;102848.84;5048313;28;20449;-86
2022/12/18 12:00:32;;;;;;;;;;;;;;;13.99;69.56;102851.03;5056448;28;19921;-85
2022/12/18 12:03:01;;;;;;;;;;;;;;;13.97;70.23;102859.56;5026480;28;20332;-85
2022/12/18 12:05:36;;;;;;;;;;;;;;;14.03;70.30;102865.28;5046779;28;19925;-85
2022/12/18 12:08:20;;;;;;;;;;;;;;;14.08;70.26;102868.28;5033489;28;19999;-86
2022/12/18 12:11:18;;;;;;;;;;;;;;;14.03;70.52;102866.22;5040112;28;20386;-87
2022/12/18 12:13:43;;;;;;;;;;;;;;;14.05;70.36;102874.19;5022645;28;19921;-86
2022/12/18 12:16:11;;;;;;;;;;;;;;;14.02;70.45;102874.88;5040598;28;19917;-89
2022/12/18 12:18:42;;;;;;;;;;;;;;;14.04;70.39;102881.16;5033458;28;20011;-88
2022/12/18 12:21:23;;;;;;;;;;;;;;;13.98;70.19;102885.06;5041503;28;20425;-87
2022/12/18 12:23:48;;;;;;;;;;;;;;;14.05;70.41;102896.13;5038706;28;20310;-86
2022/12/18 12:26:20;;;;;;;;;;;;;;;14.03;70.13;102896.81;5038569;28;19916;-87
2022/12/18 12:28:48;;;;;;;;;;;;;;;14.08;70.09;102912.94;5037790;28;20001;-87
2022/12/18 12:31:13;;;;;;;;;;;;;;;14.05;70.05;102909.28;5032766;28;19917;-87
2022/12/18 12:33:54;;;;;;;;;;;;;;;14.02;70.12;102913.38;5041278;28;20052;-85
2022/12/18 12:36:21;;;;;;;;;;;;;;;14.02;70.25;102916.00;5049339;28;20417;-84
2022/12/18 12:38:50;;;;;;;;;;;;;;;14.00;70.20;102921.13;5045496;28;20011;-84
2022/12/18 12:44:02;;;;;;;;;;;;;;;14.02;70.12;102919.53;5042690;28;19924;-85
2022/12/18 12:46:27;;;;;;;;;;;;;;;14.01;70.06;102924.66;5043929;28;19917;-84
2022/12/18 12:48:54;;;;;;;;;;;;;;;14.05;69.81;102925.03;5038073;28;20313;-84